Time;durP1;ratioP1;P1;durP2;ratioP2;P2;SDS_P1;SDS_P2;PMS_P1;PMS_P2;Temp;Humidity;BMP_temperature;BMP_pressure;BME280_temperature;BME280_humidity;BME280_pressure;Samples;Min_cycle;Max_cycle;Signal;HPM_P1;HPM_P2
2023/12/12 00:01:28;;;;;;;3.33;1.27;;;6.90;7.70;;;;;;8284756;28;20222;-65
2023/12/12 00:05:29;;;;;;;1.33;0.93;;;6.80;1.00;;;;;;8285783;28;20233;-69
2023/12/12 00:09:33;;;;;;;2.03;0.90;;;6.90;1.00;;;;;;8284923;28;20352;-70
2023/12/12 00:13:33;;;;;;;4.00;1.00;;;6.90;1.00;;;;;;8283790;28;20279;-69
2023/12/12 00:17:34;;;;;;;1.00;0.87;;;6.90;99.90;;;;;;8283035;28;20264;-68
2023/12/12 00:21:35;;;;;;;3.30;1.10;;;6.90;97.20;;;;;;8283118;28;20224;-66
2023/12/12 00:25:35;;;;;;;0.80;0.80;;;6.80;99.90;;;;;;8284651;28;20201;-68
2023/12/12 00:29:38;;;;;;;1.13;0.90;;;6.80;1.00;;;;;;8279366;28;20210;-66
2023/12/12 00:33:39;;;;;;;1.57;0.77;;;6.80;99.90;;;;;;8282412;28;20191;-66
2023/12/12 00:37:39;;;;;;;3.17;1.00;;;6.70;99.90;;;;;;8288087;28;20187;-68
2023/12/12 00:41:40;;;;;;;3.50;1.10;;;6.70;99.90;;;;;;8284688;28;20317;-67
2023/12/12 00:45:41;;;;;;;2.80;0.90;;;6.60;99.90;;;;;;8283807;28;20186;-64
2023/12/12 00:49:41;;;;;;;2.77;0.80;;;6.60;1.00;;;;;;8282462;28;20276;-66
2023/12/12 00:53:42;;;;;;;3.50;0.97;;;6.50;99.90;;;;;;8285739;28;20186;-65
2023/12/12 00:57:43;;;;;;;0.70;0.70;;;6.50;1.00;;;;;;8285050;28;20286;-66
2023/12/12 01:01:43;;;;;;;2.23;0.87;;;6.40;99.90;;;;;;8277801;28;20229;-66
2023/12/12 01:05:44;;;;;;;1.53;0.90;;;6.40;99.90;;;;;;8286375;28;20742;-65
2023/12/12 01:09:45;;;;;;;0.80;0.60;;;6.40;99.90;;;;;;8291012;28;20211;-67
2023/12/12 01:13:48;;;;;;;2.40;0.80;;;6.30;1.00;;;;;;8300949;28;20198;-68
2023/12/12 01:17:48;;;;;;;1.67;0.80;;;6.30;99.90;;;;;;8287372;28;20183;-68
2023/12/12 01:21:49;;;;;;;2.70;0.73;;;6.20;99.90;;;;;;8283662;28;20213;-67
2023/12/12 01:25:50;;;;;;;1.93;0.70;;;6.20;1.00;;;;;;8287425;28;20748;-66
2023/12/12 01:29:50;;;;;;;1.53;0.73;;;6.20;99.90;;;;;;8286932;28;20210;-66
2023/12/12 01:33:52;;;;;;;1.50;0.60;;;6.20;1.00;;;;;;8286158;28;20183;-67
2023/12/12 01:37:52;;;;;;;1.63;0.90;;;6.30;1.00;;;;;;8282737;28;20175;-69
2023/12/12 01:41:53;;;;;;;2.03;0.80;;;6.30;1.00;;;;;;8279325;28;20198;-70
2023/12/12 01:45:56;;;;;;;3.27;0.60;;;6.30;1.00;;;;;;8299748;28;20195;-66
2023/12/12 01:49:57;;;;;;;1.20;0.70;;;6.20;99.90;;;;;;8290455;28;20301;-69
2023/12/12 01:54:00;;;;;;;1.53;0.63;;;6.10;25.40;;;;;;8289792;28;20279;-69
2023/12/12 01:58:01;;;;;;;0.87;0.80;;;6.10;34.60;;;;;;8283242;28;20271;-68
2023/12/12 02:02:03;;;;;;;1.67;0.80;;;6.20;1.00;;;;;;8289040;28;20214;-67
2023/12/12 02:06:05;;;;;;;0.80;0.60;;;6.20;99.90;;;;;;8286586;28;20187;-69
2023/12/12 02:10:06;;;;;;;0.60;0.50;;;6.30;1.00;;;;;;8289932;28;20213;-70
2023/12/12 02:14:09;;;;;;;0.97;0.80;;;6.30;99.90;;;;;;8291525;28;20182;-68
2023/12/12 02:18:11;;;;;;;1.17;0.70;;;6.40;85.50;;;;;;8290122;28;20271;-71
2023/12/12 02:22:12;;;;;;;2.40;0.90;;;6.40;1.00;;;;;;8284860;28;20195;-67
2023/12/12 02:26:13;;;;;;;2.10;0.60;;;6.40;1.00;;;;;;8285191;28;20269;-71
2023/12/12 02:30:16;;;;;;;2.03;0.77;;;6.40;99.90;;;;;;8281939;28;20317;-69
2023/12/12 02:34:17;;;;;;;1.23;1.00;;;6.50;99.90;;;;;;8285466;28;20190;-68
2023/12/12 02:38:17;;;;;;;1.90;0.70;;;6.50;99.90;;;;;;8288625;28;20191;-69
2023/12/12 02:42:18;;;;;;;1.40;0.93;;;6.50;99.90;;;;;;8292081;28;20260;-68
2023/12/12 02:46:19;;;;;;;2.50;0.80;;;6.50;99.90;;;;;;8295626;28;20444;-68
2023/12/12 02:50:20;;;;;;;5.90;0.80;;;6.50;99.90;;;;;;8292435;28;20206;-68
2023/12/12 02:54:20;;;;;;;1.80;0.80;;;6.40;1.00;;;;;;8290005;28;20190;-65
2023/12/12 02:58:21;;;;;;;1.80;0.80;;;6.40;99.90;;;;;;8290347;28;20194;-66
2023/12/12 03:02:22;;;;;;;2.83;0.90;;;6.40;99.90;;;;;;8287044;28;20277;-65
2023/12/12 03:06:22;;;;;;;2.50;0.90;;;6.40;99.90;;;;;;8294320;28;20224;-65
2023/12/12 03:10:23;;;;;;;1.80;0.90;;;6.40;99.90;;;;;;8285062;28;20215;-70
2023/12/12 03:14:30;;;;;;;1.23;0.80;;;6.40;1.00;;;;;;8285973;28;20186;-68
2023/12/12 03:18:31;;;;;;;1.03;0.80;;;6.40;1.00;;;;;;8288970;28;20195;-68
2023/12/12 03:22:31;;;;;;;1.20;0.80;;;6.50;1.00;;;;;;8293107;28;20586;-67
2023/12/12 03:26:33;;;;;;;1.10;0.83;;;6.50;1.00;;;;;;8287163;28;20660;-66
2023/12/12 03:30:34;;;;;;;1.47;0.90;;;6.50;1.00;;;;;;8283417;28;20221;-67
2023/12/12 03:34:38;;;;;;;1.73;1.10;;;6.50;1.00;;;;;;8286054;28;20215;-64
2023/12/12 03:38:38;;;;;;;1.53;1.00;;;6.50;1.00;;;;;;8301737;28;20199;-67
2023/12/12 03:42:39;;;;;;;2.80;0.77;;;6.50;1.00;;;;;;8289034;28;20384;-65
2023/12/12 03:46:40;;;;;;;3.13;1.10;;;6.50;1.00;;;;;;8295344;28;20229;-65
2023/12/12 03:50:40;;;;;;;2.10;1.00;;;6.40;1.00;;;;;;8288826;28;20229;-65
2023/12/12 03:54:41;;;;;;;3.30;1.10;;;6.40;1.00;;;;;;8294960;28;20686;-66
2023/12/12 03:58:42;;;;;;;1.67;0.90;;;6.30;1.00;;;;;;8286878;28;20313;-69
2023/12/12 04:02:43;;;;;;;2.30;0.90;;;6.30;1.00;;;;;;8298554;28;20230;-67
2023/12/12 04:06:45;;;;;;;1.97;1.10;;;6.40;1.00;;;;;;8289058;28;20497;-68
2023/12/12 04:10:46;;;;;;;2.27;1.17;;;6.40;1.00;;;;;;8286337;28;20218;-65
2023/12/12 04:14:46;;;;;;;2.07;1.07;;;6.40;1.00;;;;;;8288436;28;20189;-64
2023/12/12 04:18:48;;;;;;;2.60;1.03;;;6.40;1.00;;;;;;8288042;28;20226;-65
2023/12/12 04:22:49;;;;;;;1.80;1.00;;;6.40;1.00;;;;;;8290185;28;20199;-67
2023/12/12 04:26:50;;;;;;;2.13;1.07;;;6.40;1.00;;;;;;8285288;28;20347;-68
2023/12/12 04:30:51;;;;;;;5.13;1.13;;;6.40;1.00;;;;;;8286173;28;20297;-65
2023/12/12 04:34:51;;;;;;;2.57;1.00;;;6.40;1.00;;;;;;8292499;28;20190;-65
2023/12/12 04:38:52;;;;;;;2.07;1.10;;;6.30;1.00;;;;;;8293649;28;20198;-68
2023/12/12 04:42:53;;;;;;;2.30;1.17;;;6.30;42.00;;;;;;8286263;28;20210;-65
2023/12/12 04:46:54;;;;;;;2.03;1.20;;;6.30;76.40;;;;;;8286244;28;20621;-65
2023/12/12 04:50:55;;;;;;;3.37;1.20;;;6.30;99.90;;;;;;8288399;28;20249;-65
2023/12/12 04:54:56;;;;;;;1.37;1.03;;;6.30;99.90;;;;;;8287687;28;20191;-66
2023/12/12 04:58:58;;;;;;;2.90;1.23;;;6.30;1.00;;;;;;8286921;28;20518;-66
2023/12/12 05:02:58;;;;;;;1.87;1.00;;;6.20;99.90;;;;;;8283505;28;20609;-64
2023/12/12 05:06:59;;;;;;;2.47;1.20;;;6.20;1.00;;;;;;8283069;28;20193;-66
2023/12/12 05:11:00;;;;;;;1.20;1.10;;;6.20;1.00;;;;;;8283974;28;20249;-66
2023/12/12 05:15:01;;;;;;;1.47;1.07;;;6.10;1.00;;;;;;8282058;28;20186;-66
2023/12/12 05:19:02;;;;;;;3.30;1.30;;;6.10;99.90;;;;;;8287687;28;20257;-65
2023/12/12 05:23:03;;;;;;;1.73;1.17;;;6.10;1.00;;;;;;8289175;28;20186;-66
2023/12/12 05:27:04;;;;;;;2.70;0.90;;;6.00;99.90;;;;;;8279494;28;20295;-64
2023/12/12 05:31:05;;;;;;;1.60;1.17;;;6.10;99.90;;;;;;8283870;28;20221;-68
2023/12/12 05:35:08;;;;;;;3.70;1.50;;;6.00;1.00;;;;;;8283515;28;20191;-67
2023/12/12 05:39:09;;;;;;;3.30;1.00;;;6.00;99.90;;;;;;8286470;28;20184;-69
2023/12/12 05:43:10;;;;;;;1.77;1.27;;;6.00;99.90;;;;;;8289084;28;20198;-68
2023/12/12 05:47:11;;;;;;;1.20;1.00;;;6.00;1.00;;;;;;8283707;28;20187;-68
2023/12/12 05:51:12;;;;;;;1.33;0.90;;;6.00;1.00;;;;;;8286975;28;20215;-66
2023/12/12 05:55:12;;;;;;;1.63;0.90;;;6.00;1.00;;;;;;8284625;28;20580;-65
2023/12/12 05:59:14;;;;;;;2.60;0.90;;;6.00;1.00;;;;;;8287002;28;20189;-67
2023/12/12 06:03:14;;;;;;;1.63;1.10;;;6.00;1.00;;;;;;8285601;28;20223;-67
2023/12/12 06:07:15;;;;;;;1.30;1.10;;;5.90;99.90;;;;;;8285897;28;20281;-66
2023/12/12 06:11:16;;;;;;;1.40;1.10;;;5.90;99.90;;;;;;8281164;28;20281;-66
2023/12/12 06:15:17;;;;;;;3.30;1.40;;;5.90;99.90;;;;;;8295845;28;20192;-65
2023/12/12 06:19:17;;;;;;;4.03;1.53;;;5.80;1.00;;;;;;8287348;28;20217;-66
2023/12/12 06:23:18;;;;;;;2.90;1.70;;;5.80;1.00;;;;;;8289311;28;20187;-66
2023/12/12 06:27:19;;;;;;;2.87;1.50;;;5.80;1.00;;;;;;8289852;28;20189;-64
2023/12/12 06:31:20;;;;;;;2.90;1.80;;;5.80;15.80;;;;;;8292485;28;20218;-65
2023/12/12 06:35:22;;;;;;;5.30;1.50;;;5.80;99.90;;;;;;8290059;28;20190;-64
2023/12/12 06:39:24;;;;;;;1.70;1.43;;;5.80;99.90;;;;;;8291631;28;20194;-64
2023/12/12 06:43:26;;;;;;;3.63;1.73;;;5.80;99.90;;;;;;8304891;28;20229;-66
2023/12/12 06:47:26;;;;;;;2.60;1.70;;;5.80;99.90;;;;;;8312453;28;20198;-63
2023/12/12 06:51:28;;;;;;;4.53;1.77;;;5.90;99.90;;;;;;8298772;28;20336;-65
2023/12/12 06:55:31;;;;;;;3.47;2.07;;;6.00;99.90;;;;;;8306694;28;20275;-66
2023/12/12 06:59:31;;;;;;;5.33;2.30;;;6.00;99.90;;;;;;8305071;28;20193;-66
2023/12/12 07:03:32;;;;;;;2.90;1.80;;;5.90;99.90;;;;;;8292328;28;20731;-66
2023/12/12 07:07:33;;;;;;;4.53;2.00;;;5.90;28.60;;;;;;8292040;28;20496;-65
2023/12/12 07:11:34;;;;;;;3.63;1.73;;;5.90;1.00;;;;;;8294383;28;20237;-66
2023/12/12 07:15:35;;;;;;;5.43;1.90;;;5.90;99.90;;;;;;8290308;28;20179;-66
2023/12/12 07:19:36;;;;;;;2.33;1.70;;;5.90;95.60;;;;;;8295536;28;20233;-67
2023/12/12 07:23:36;;;;;;;4.50;1.50;;;5.90;99.90;;;;;;8287934;28;20226;-68
2023/12/12 07:27:37;;;;;;;4.43;1.63;;;5.90;1.00;;;;;;8291466;28;20478;-68
2023/12/12 07:31:38;;;;;;;3.90;1.47;;;5.90;99.90;;;;;;8293180;28;20214;-67
2023/12/12 07:35:39;;;;;;;2.30;1.43;;;5.90;99.90;;;;;;8298112;28;20200;-67
2023/12/12 07:39:40;;;;;;;3.93;1.53;;;6.00;1.00;;;;;;8291006;28;20199;-68
2023/12/12 07:43:41;;;;;;;6.33;1.60;;;6.00;2.00;;;;;;8293094;28;20386;-69
2023/12/12 07:47:41;;;;;;;2.17;1.40;;;6.00;99.90;;;;;;8288654;28;20186;-67
2023/12/12 07:51:42;;;;;;;3.23;1.10;;;6.00;99.90;;;;;;8293374;28;20538;-67
2023/12/12 07:55:43;;;;;;;3.63;1.50;;;6.10;76.70;;;;;;8284775;28;20206;-66
2023/12/12 07:59:44;;;;;;;2.80;0.93;;;6.20;2.50;;;;;;8291875;28;20214;-68
2023/12/12 08:03:45;;;;;;;4.80;1.63;;;6.20;1.00;;;;;;8286638;28;20202;-67
2023/12/12 08:07:46;;;;;;;2.30;1.07;;;6.30;1.00;;;;;;8289597;28;20469;-69
2023/12/12 08:11:46;;;;;;;2.03;0.90;;;6.40;1.00;;;;;;8291298;28;20215;-67
2023/12/12 08:15:47;;;;;;;4.83;1.30;;;6.40;1.00;;;;;;8291590;28;20274;-68
2023/12/12 08:19:48;;;;;;;3.63;1.10;;;6.40;99.90;;;;;;8294770;28;20241;-69
2023/12/12 08:23:48;;;;;;;2.60;1.03;;;6.50;99.90;;;;;;8285567;28;20245;-70
2023/12/12 08:27:49;;;;;;;2.17;1.10;;;6.50;99.90;;;;;;8292055;28;20186;-68
2023/12/12 08:31:50;;;;;;;2.60;1.10;;;6.60;99.90;;;;;;8288650;28;20222;-68
2023/12/12 08:35:50;;;;;;;2.37;0.97;;;6.70;99.90;;;;;;8289923;28;20193;-67
2023/12/12 08:39:51;;;;;;;2.47;1.00;;;6.80;99.90;;;;;;8284903;28;20500;-65
2023/12/12 08:43:52;;;;;;;3.50;1.00;;;7.00;99.90;;;;;;8291178;28;20183;-67
2023/12/12 08:47:52;;;;;;;1.87;0.90;;;7.10;99.90;;;;;;8310895;28;20187;-64
2023/12/12 08:51:53;;;;;;;2.97;1.03;;;7.30;99.90;;;;;;8293672;28;20580;-65
2023/12/12 08:55:55;;;;;;;4.07;1.40;;;7.40;99.90;;;;;;8285734;28;20193;-67
2023/12/12 08:59:56;;;;;;;1.87;0.70;;;7.50;91.20;;;;;;8287363;28;20203;-67
2023/12/12 09:03:56;;;;;;;2.80;1.00;;;7.70;68.10;;;;;;8289507;28;20202;-67
2023/12/12 09:07:57;;;;;;;1.27;0.80;;;7.80;21.90;;;;;;8285029;28;20208;-66
2023/12/12 09:12:00;;;;;;;4.00;1.20;;;7.80;20.50;;;;;;8288052;28;20288;-68
2023/12/12 09:16:01;;;;;;;2.30;1.20;;;7.70;17.30;;;;;;8288579;28;20176;-67
2023/12/12 09:20:02;;;;;;;2.90;1.50;;;7.70;7.00;;;;;;8290131;28;20214;-66
2023/12/12 09:24:03;;;;;;;1.93;1.10;;;7.80;17.40;;;;;;8290785;28;20183;-67
2023/12/12 09:28:04;;;;;;;2.77;1.20;;;7.70;1.00;;;;;;8291553;28;20236;-66
2023/12/12 09:32:05;;;;;;;2.87;1.63;;;7.70;6.30;;;;;;8288638;28;20211;-65
2023/12/12 09:36:06;;;;;;;2.33;1.40;;;7.60;3.30;;;;;;8280187;28;20285;-66
2023/12/12 09:40:08;;;;;;;2.70;1.50;;;7.80;14.10;;;;;;8285504;28;20195;-66
2023/12/12 09:44:13;;;;;;;2.50;1.47;;;8.10;1.00;;;;;;8286948;28;20187;-68
2023/12/12 09:48:14;;;;;;;2.07;1.30;;;8.30;1.00;;;;;;8289121;28;20191;-69
2023/12/12 09:52:16;;;;;;;2.87;1.43;;;8.50;1.00;;;;;;8289570;28;20212;-72
2023/12/12 09:56:17;;;;;;;2.73;1.30;;;8.60;1.00;;;;;;8289072;28;20423;-68
2023/12/12 10:00:21;;;;;;;2.33;1.27;;;8.50;1.00;;;;;;8303388;28;20215;-67
2023/12/12 10:04:23;;;;;;;3.07;1.50;;;8.40;1.00;;;;;;8302212;28;20290;-70
2023/12/12 10:08:24;;;;;;;2.33;1.40;;;8.50;1.00;;;;;;8298847;28;20188;-69
2023/12/12 10:12:24;;;;;;;2.63;1.33;;;8.60;1.00;;;;;;8299867;28;20207;-68
2023/12/12 10:16:25;;;;;;;3.70;1.60;;;8.60;1.00;;;;;;8295152;28;20245;-68
2023/12/12 10:20:29;;;;;;;2.20;1.10;;;8.90;1.00;;;;;;8292279;28;20221;-68
2023/12/12 10:24:29;;;;;;;5.20;1.33;;;9.30;1.00;;;;;;8297110;28;20219;-70
2023/12/12 10:28:30;;;;;;;1.83;1.20;;;9.50;1.00;;;;;;8295731;28;20188;-67
2023/12/12 10:32:52;;;;;;;2.33;1.10;;;9.30;1.00;;;;;;8297025;28;20224;-66
2023/12/12 10:36:54;;;;;;;2.27;1.57;;;9.20;1.00;;;;;;8290562;28;20194;-69
2023/12/12 10:41:12;;;;;;;1.50;0.93;;;9.30;1.00;;;;;;8295021;28;20191;-68
2023/12/12 10:45:14;;;;;;;2.23;1.13;;;9.20;1.00;;;;;;8296733;28;20196;-68
2023/12/12 10:49:16;;;;;;;1.90;1.20;;;9.10;1.00;;;;;;8296168;28;20192;-67
2023/12/12 10:53:19;;;;;;;2.97;1.00;;;9.20;1.00;;;;;;8290347;28;20185;-67
2023/12/12 10:57:21;;;;;;;1.97;1.20;;;9.30;1.00;;;;;;8289686;28;20206;-68
2023/12/12 11:01:23;;;;;;;6.40;1.20;;;9.30;1.00;;;;;;8287073;28;20397;-64
2023/12/12 11:05:24;;;;;;;1.57;0.97;;;9.20;1.00;;;;;;8301846;28;20200;-65
2023/12/12 11:09:28;;;;;;;1.57;0.93;;;9.30;1.00;;;;;;8297124;28;20197;-68
2023/12/12 11:13:31;;;;;;;3.73;1.10;;;9.20;1.00;;;;;;8295751;28;20194;-69
2023/12/12 11:17:34;;;;;;;3.87;1.30;;;9.10;1.00;;;;;;8298838;28;20190;-66
2023/12/12 11:21:48;;;;;;;3.60;1.53;;;9.10;1.00;;;;;;8297862;28;20197;-67
2023/12/12 11:25:49;;;;;;;2.67;1.53;;;9.10;1.00;;;;;;8300490;28;20213;-66
2023/12/12 11:29:50;;;;;;;2.23;1.40;;;9.20;1.00;;;;;;8300401;28;20291;-67
2023/12/12 11:34:07;;;;;;;5.23;1.10;;;9.20;1.00;;;;;;8297042;28;20194;-68
2023/12/12 11:38:30;;;;;;;1.80;1.00;;;8.80;1.00;;;;;;8289931;28;20267;-67
2023/12/12 11:42:31;;;;;;;3.57;1.30;;;8.80;1.00;;;;;;8291116;28;20189;-67
2023/12/12 11:46:32;;;;;;;2.60;1.00;;;8.80;1.00;;;;;;8291703;28;20205;-66
2023/12/12 11:50:33;;;;;;;2.00;0.60;;;8.90;1.00;;;;;;8310195;28;20214;-68
2023/12/12 11:54:38;;;;;;;2.50;0.80;;;8.90;1.00;;;;;;8286425;28;20194;-67
2023/12/12 11:58:39;;;;;;;2.40;0.97;;;8.80;1.00;;;;;;8294263;28;20192;-67
2023/12/12 12:02:41;;;;;;;3.20;1.00;;;8.80;1.00;;;;;;8289934;28;20259;-67
2023/12/12 12:06:43;;;;;;;2.47;0.80;;;8.80;1.00;;;;;;8284861;28;20311;-68
2023/12/12 12:10:55;;;;;;;2.40;0.97;;;8.80;1.00;;;;;;8279799;28;20390;-67
2023/12/12 12:15:06;;;;;;;1.43;1.00;;;8.70;1.00;;;;;;8294390;28;20193;-67
2023/12/12 12:19:28;;;;;;;1.40;0.80;;;8.70;1.00;;;;;;8295494;28;20211;-66
2023/12/12 12:23:37;;;;;;;2.17;1.30;;;8.70;1.00;;;;;;8300912;28;20197;-65
2023/12/12 12:27:53;;;;;;;4.27;1.70;;;8.80;1.00;;;;;;8298402;28;20197;-67
2023/12/12 12:31:54;;;;;;;4.13;1.87;;;8.80;1.00;;;;;;8289326;28;20289;-66
2023/12/12 12:35:55;;;;;;;2.47;1.57;;;8.70;1.00;;;;;;8287233;28;20185;-66
2023/12/12 12:39:56;;;;;;;3.87;1.50;;;8.70;1.00;;;;;;8285000;28;20204;-67
2023/12/12 12:43:57;;;;;;;4.73;2.03;;;8.70;1.00;;;;;;8299257;28;20195;-67
2023/12/12 12:47:58;;;;;;;4.90;1.90;;;8.60;1.00;;;;;;8295945;28;20184;-67
2023/12/12 12:51:59;;;;;;;5.63;1.93;;;8.60;1.00;;;;;;8291287;28;20251;-67
2023/12/12 12:55:59;;;;;;;3.17;1.90;;;8.60;1.00;;;;;;8289685;28;20350;-67
2023/12/12 13:00:00;;;;;;;4.10;2.17;;;8.60;1.00;;;;;;8290472;28;20221;-67
2023/12/12 13:04:01;;;;;;;3.63;2.00;;;8.60;1.00;;;;;;8295294;28;20235;-66
2023/12/12 13:08:03;;;;;;;3.47;2.37;;;8.60;1.00;;;;;;8290624;28;20188;-66
2023/12/12 13:12:04;;;;;;;3.80;1.90;;;8.50;1.00;;;;;;8289984;28;20220;-66
2023/12/12 13:16:06;;;;;;;3.80;2.20;;;8.50;1.00;;;;;;8293668;28;20203;-66
2023/12/12 13:20:09;;;;;;;4.50;2.03;;;8.50;1.00;;;;;;8286044;28;20195;-67
2023/12/12 13:24:10;;;;;;;4.97;2.40;;;8.40;1.00;;;;;;8290032;28;20192;-66
2023/12/12 13:28:11;;;;;;;4.10;2.70;;;8.40;1.00;;;;;;8294375;28;20200;-67
2023/12/12 13:32:11;;;;;;;4.60;2.60;;;8.40;1.00;;;;;;8290855;28;20233;-67
2023/12/12 13:36:12;;;;;;;4.43;2.53;;;8.40;1.00;;;;;;8282791;28;20211;-66
2023/12/12 13:40:13;;;;;;;2.97;2.57;;;8.40;1.00;;;;;;8312913;28;20275;-66
2023/12/12 13:44:16;;;;;;;4.73;2.67;;;8.30;1.00;;;;;;8294340;28;20194;-66
2023/12/12 13:48:18;;;;;;;4.73;3.00;;;8.30;1.00;;;;;;8285622;28;20203;-66
2023/12/12 13:52:19;;;;;;;6.03;3.67;;;8.30;1.00;;;;;;8292158;28;20247;-67
2023/12/12 13:56:20;;;;;;;7.13;5.03;;;8.20;1.00;;;;;;8300335;28;20190;-65
2023/12/12 14:00:21;;;;;;;5.87;3.90;;;8.20;1.00;;;;;;8300102;28;20206;-66
2023/12/12 14:04:22;;;;;;;4.90;3.07;;;8.10;1.00;;;;;;8296581;28;20207;-66
2023/12/12 14:08:22;;;;;;;8.13;3.53;;;8.00;1.00;;;;;;8297121;28;20264;-67
2023/12/12 14:12:23;;;;;;;4.43;3.07;;;7.80;1.00;;;;;;8297848;28;20215;-67
2023/12/12 14:16:24;;;;;;;5.17;3.00;;;7.70;4.30;;;;;;8293977;28;20190;-66
2023/12/12 14:20:26;;;;;;;3.87;2.33;;;7.70;3.90;;;;;;8291750;28;20187;-67
2023/12/12 14:24:27;;;;;;;3.57;2.50;;;7.70;11.70;;;;;;8297652;28;20264;-66
2023/12/12 14:28:28;;;;;;;4.47;2.73;;;7.70;22.50;;;;;;8298183;28;20194;-66
2023/12/12 14:32:28;;;;;;;4.23;2.70;;;7.70;43.90;;;;;;8300872;28;20321;-66
2023/12/12 14:36:30;;;;;;;3.67;2.50;;;7.60;63.20;;;;;;8293239;28;20283;-67
2023/12/12 14:48:44;;;;;;;3.70;2.20;;;7.40;99.90;;;;;;8234765;28;20227;-65
2023/12/12 14:52:45;;;;;;;4.43;2.47;;;7.30;99.90;;;;;;8239055;28;20595;-64
2023/12/12 14:56:50;;;;;;;4.63;3.00;;;7.30;99.90;;;;;;8267716;28;20190;-64
2023/12/12 15:00:51;;;;;;;4.40;2.77;;;7.20;99.90;;;;;;8279986;28;20203;-64
2023/12/12 15:04:52;;;;;;;4.13;2.97;;;7.10;99.90;;;;;;8263697;28;20241;-65
2023/12/12 15:08:53;;;;;;;4.30;2.60;;;7.10;99.90;;;;;;8280529;28;20191;-63
2023/12/12 15:12:53;;;;;;;4.13;2.47;;;7.00;99.90;;;;;;8247996;28;20404;-66
2023/12/12 15:16:54;;;;;;;4.80;2.90;;;6.90;99.90;;;;;;8274891;28;20286;-66
2023/12/12 15:20:55;;;;;;;5.10;3.57;;;6.90;99.90;;;;;;8211698;28;20581;-65
2023/12/12 15:24:59;;;;;;;5.53;3.57;;;6.80;99.90;;;;;;8210454;28;21280;-66
2023/12/12 15:29:03;;;;;;;7.53;3.80;;;6.80;99.90;;;;;;8254889;28;20195;-64
2023/12/12 15:33:03;;;;;;;7.37;4.37;;;6.70;99.90;;;;;;8238376;28;20254;-65
2023/12/12 15:37:05;;;;;;;6.53;4.40;;;6.70;99.90;;;;;;8266823;28;20191;-65
2023/12/12 15:41:06;;;;;;;7.10;4.27;;;6.70;99.90;;;;;;8233547;28;20191;-65
2023/12/12 15:45:08;;;;;;;7.20;5.03;;;6.60;99.90;;;;;;8256414;28;20214;-65
2023/12/12 15:49:09;;;;;;;6.90;4.63;;;6.60;99.90;;;;;;8270657;28;20191;-65
2023/12/12 15:53:10;;;;;;;5.97;4.53;;;6.60;1.00;;;;;;8264326;28;20888;-67
2023/12/12 15:57:11;;;;;;;6.87;4.30;;;6.50;1.00;;;;;;8270224;28;20213;-64
2023/12/12 16:01:12;;;;;;;6.37;4.00;;;6.50;1.00;;;;;;8274855;28;20195;-65
2023/12/12 16:05:13;;;;;;;6.97;4.60;;;6.40;1.00;;;;;;8278453;28;20275;-65
2023/12/12 16:09:17;;;;;;;5.27;4.20;;;6.40;1.00;;;;;;8279863;28;20199;-64
2023/12/12 16:13:17;;;;;;;7.57;4.53;;;6.30;1.00;;;;;;8271659;28;20211;-65
2023/12/12 16:17:18;;;;;;;8.67;5.30;;;6.30;1.00;;;;;;8272760;28;20242;-64
2023/12/12 16:21:19;;;;;;;9.00;5.20;;;6.30;1.00;;;;;;8269807;28;20198;-65
2023/12/12 16:25:20;;;;;;;9.07;5.50;;;6.30;1.00;;;;;;8271440;28;20619;-67
2023/12/12 16:29:21;;;;;;;7.10;4.97;;;6.20;1.00;;;;;;8274427;28;20415;-66
2023/12/12 16:33:22;;;;;;;5.63;3.97;;;6.20;1.00;;;;;;8264645;28;20216;-66
2023/12/12 16:37:23;;;;;;;7.87;4.37;;;6.10;1.00;;;;;;8264567;28;20195;-66
2023/12/12 16:41:24;;;;;;;6.17;4.23;;;6.10;19.00;;;;;;8272191;28;20207;-66
2023/12/12 16:45:24;;;;;;;5.23;3.70;;;6.10;50.30;;;;;;8257697;28;20203;-65
2023/12/12 16:49:25;;;;;;;7.53;4.60;;;6.10;88.80;;;;;;8256755;28;20182;-65
2023/12/12 16:53:26;;;;;;;8.40;5.00;;;6.10;99.90;;;;;;8264365;28;20215;-65
2023/12/12 16:57:27;;;;;;;8.17;4.90;;;6.10;99.90;;;;;;8251510;28;20277;-65
2023/12/12 17:01:29;;;;;;;10.77;6.40;;;6.10;99.90;;;;;;8215355;28;20633;-67
2023/12/12 17:05:30;;;;;;;59.73;37.90;;;6.10;99.90;;;;;;8226318;28;20197;-66
2023/12/12 17:09:31;;;;;;;92.93;47.17;;;6.10;99.90;;;;;;8246125;28;20233;-67
2023/12/12 17:13:35;;;;;;;196.03;75.37;;;6.10;99.90;;;;;;8213900;28;20202;-67
2023/12/12 17:17:36;;;;;;;144.03;57.97;;;6.10;99.90;;;;;;8270029;28;20187;-68
2023/12/12 17:21:36;;;;;;;74.70;37.10;;;6.10;99.90;;;;;;8243950;28;20183;-68
2023/12/12 17:25:37;;;;;;;28.67;16.20;;;6.00;99.90;;;;;;8244377;28;20274;-69
2023/12/12 17:29:38;;;;;;;20.20;13.37;;;6.00;99.90;;;;;;8259203;28;20281;-68
2023/12/12 17:33:39;;;;;;;42.83;24.47;;;5.80;99.90;;;;;;8246927;28;20195;-67
2023/12/12 17:37:41;;;;;;;38.37;23.83;;;5.70;99.90;;;;;;8223115;28;20231;-67
2023/12/12 17:41:42;;;;;;;44.70;24.00;;;5.50;99.90;;;;;;8234410;28;20288;-66
2023/12/12 17:45:43;;;;;;;71.00;38.97;;;5.30;99.90;;;;;;8273731;28;20207;-67
2023/12/12 17:49:43;;;;;;;61.63;35.43;;;5.20;99.90;;;;;;8267961;28;20194;-67
2023/12/12 17:53:44;;;;;;;48.27;26.00;;;5.00;99.90;;;;;;8269433;28;20253;-68
2023/12/12 17:57:45;;;;;;;29.20;17.10;;;4.90;1.00;;;;;;8269987;28;20195;-68
2023/12/12 18:01:46;;;;;;;19.47;11.87;;;4.70;1.00;;;;;;8255722;28;20196;-68
2023/12/12 18:05:49;;;;;;;12.20;8.40;;;4.50;1.00;;;;;;8265326;28;20195;-66
2023/12/12 18:09:50;;;;;;;11.77;7.17;;;4.40;55.80;;;;;;8274593;28;20314;-67
2023/12/12 18:13:51;;;;;;;12.57;6.33;;;4.30;99.90;;;;;;8262917;28;20185;-66
2023/12/12 18:17:52;;;;;;;9.63;6.73;;;4.30;99.90;;;;;;8264890;28;20188;-67
2023/12/12 18:21:53;;;;;;;10.20;6.33;;;4.20;1.00;;;;;;8256243;28;20269;-69
2023/12/12 18:25:54;;;;;;;14.53;8.93;;;4.10;99.90;;;;;;8224166;28;20196;-68
2023/12/12 18:29:55;;;;;;;22.10;13.57;;;4.10;99.90;;;;;;8255421;28;20211;-68
2023/12/12 18:33:57;;;;;;;20.70;13.57;;;4.10;1.00;;;;;;8261439;28;20314;-69
2023/12/12 18:37:58;;;;;;;18.67;13.57;;;4.00;99.90;;;;;;8246159;28;20184;-67
2023/12/12 18:41:59;;;;;;;19.20;13.43;;;3.90;99.90;;;;;;8239260;28;20231;-65
2023/12/12 18:46:00;;;;;;;19.13;12.33;;;3.70;1.00;;;;;;8258862;28;20234;-67
2023/12/12 18:50:00;;;;;;;17.03;9.33;;;3.60;99.90;;;;;;8258360;28;20214;-65
2023/12/12 18:54:01;;;;;;;12.60;8.63;;;3.40;99.90;;;;;;8271360;28;20186;-67
2023/12/12 18:58:02;;;;;;;20.40;11.57;;;3.20;99.90;;;;;;8272457;28;20183;-67
2023/12/12 19:02:05;;;;;;;18.43;12.13;;;3.00;99.90;;;;;;8275236;28;20255;-67
2023/12/12 19:06:07;;;;;;;24.03;15.43;;;2.90;99.90;;;;;;8275512;28;20202;-68
2023/12/12 19:10:10;;;;;;;34.30;18.43;;;2.80;99.90;;;;;;8273255;28;20207;-67
2023/12/12 19:14:10;;;;;;;36.27;20.57;;;2.70;1.00;;;;;;8268344;28;20187;-68
2023/12/12 19:18:11;;;;;;;57.20;29.73;;;2.60;99.90;;;;;;8250450;28;20202;-67
2023/12/12 19:22:12;;;;;;;62.77;30.80;;;2.60;99.90;;;;;;8262729;28;20191;-66
2023/12/12 19:26:13;;;;;;;48.00;24.50;;;2.60;99.90;;;;;;8261630;28;20257;-67
2023/12/12 19:30:14;;;;;;;46.93;23.73;;;2.40;99.90;;;;;;8258368;28;20222;-67
2023/12/12 19:34:15;;;;;;;76.43;35.73;;;2.30;12.80;;;;;;8263125;28;20210;-68
2023/12/12 19:38:16;;;;;;;82.20;33.67;;;2.30;1.00;;;;;;8265768;28;20195;-68
2023/12/12 19:42:17;;;;;;;43.97;25.17;;;2.20;99.90;;;;;;8267492;28;20213;-68
2023/12/12 19:46:17;;;;;;;41.73;23.17;;;2.10;99.90;;;;;;8277478;28;20211;-68
2023/12/12 19:50:18;;;;;;;55.47;28.50;;;2.00;92.00;;;;;;8277351;28;20215;-68
2023/12/12 19:54:19;;;;;;;66.10;31.23;;;2.00;99.90;;;;;;8269103;28;20191;-67
2023/12/12 19:58:20;;;;;;;76.27;33.30;;;2.00;1.00;;;;;;8273553;28;20269;-66
2023/12/12 20:02:22;;;;;;;57.90;29.60;;;1.90;19.60;;;;;;8278938;28;20191;-68
2023/12/12 20:06:23;;;;;;;51.47;27.80;;;1.80;1.00;;;;;;8274460;28;20191;-67
2023/12/12 20:10:30;;;;;;;64.57;32.67;;;1.70;1.00;;;;;;8268698;28;20216;-67
2023/12/12 20:14:30;;;;;;;60.90;30.43;;;1.70;45.10;;;;;;8260759;28;20208;-67
2023/12/12 20:18:31;;;;;;;50.70;28.77;;;1.60;99.90;;;;;;8266842;28;20191;-67
2023/12/12 20:22:32;;;;;;;48.00;25.73;;;1.50;99.90;;;;;;8268854;28;20202;-67
2023/12/12 20:26:35;;;;;;;46.10;25.27;;;1.50;99.90;;;;;;8263304;28;20314;-66
2023/12/12 20:30:37;;;;;;;59.73;31.90;;;1.40;99.90;;;;;;8256211;28;20281;-67
2023/12/12 20:34:38;;;;;;;59.53;33.43;;;1.40;99.90;;;;;;8249532;28;20269;-67
2023/12/12 20:38:39;;;;;;;59.13;32.30;;;1.40;1.00;;;;;;8262746;28;20206;-68
2023/12/12 20:42:47;;;;;;;66.87;34.77;;;1.30;1.00;;;;;;8248525;28;20253;-68
2023/12/12 20:46:48;;;;;;;106.07;57.07;;;1.30;1.00;;;;;;8261101;28;20222;-67
2023/12/12 20:50:49;;;;;;;192.70;91.83;;;1.40;51.50;;;;;;8259683;28;20215;-66
2023/12/12 20:54:54;;;;;;;187.40;87.10;;;1.40;99.90;;;;;;8269088;28;20194;-67
2023/12/12 20:58:55;;;;;;;190.73;94.97;;;1.40;99.90;;;;;;8263171;28;20201;-68
2023/12/12 21:02:56;;;;;;;172.37;88.97;;;1.40;99.90;;;;;;8255393;28;20210;-68
2023/12/12 21:07:00;;;;;;;140.80;72.40;;;1.30;99.90;;;;;;8227730;28;20197;-67
2023/12/12 21:11:02;;;;;;;70.33;39.97;;;1.40;99.90;;;;;;8224994;28;20745;-66
2023/12/12 21:15:04;;;;;;;73.97;47.83;;;1.40;99.90;;;;;;8234575;28;20203;-67
2023/12/12 21:19:05;;;;;;;61.67;39.03;;;1.50;99.90;;;;;;8240962;28;20188;-67
2023/12/12 21:23:08;;;;;;;44.10;28.57;;;1.60;99.90;;;;;;8256175;28;20218;-67